Time;durP1;ratioP1;P1;durP2;ratioP2;P2;SDS_P1;SDS_P2;PMS_P1;PMS_P2;Temp;Humidity;BMP_temperature;BMP_pressure;BME280_temperature;BME280_humidity;BME280_pressure;Samples;Min_cycle;Max_cycle;Signal;HPM_P1;HPM_P2
2021/11/29 00:00:38;;;;;;;1.17;1.08;;;;;;;;;;4955544;28;20065;-90
2021/11/29 00:03:05;;;;;;;;;;;4.50;81.70;;;;;;4968869;28;20027;-91
2021/11/29 00:05:32;;;;;;;1.25;1.23;;;;;;;;;;4966040;28;20314;-91
2021/11/29 00:08:00;;;;;;;1.15;1.08;;;;;;;;;;4955246;28;20089;-91
2021/11/29 00:10:27;;;;;;;0.63;0.63;;;;;;;;;;4956075;28;20027;-90
2021/11/29 00:12:53;;;;;;;1.13;1.02;;;;;;;;;;4987348;28;20030;-90
2021/11/29 00:15:19;;;;;;;0.80;0.68;;;;;;;;;;4968786;28;20928;-91
2021/11/29 00:17:46;;;;;;;2.13;0.85;;;;;;;;;;4980860;28;20030;-90
2021/11/29 00:20:14;;;;;;;0.43;0.43;;;4.80;79.80;;;;;;4976247;28;20067;-90
2021/11/29 00:22:40;;;;;;;1.13;0.50;;;;;;;;;;4974125;28;20054;-91
2021/11/29 00:25:07;;;;;;;1.38;1.20;;;;;;;;;;4957548;28;20464;-90
2021/11/29 00:27:33;;;;;;;0.93;0.90;;;;;;;;;;4989965;28;20043;-91
2021/11/29 00:29:59;;;;;;;0.70;0.70;;;;;;;;;;4979887;28;20102;-91
2021/11/29 00:32:26;;;;;;;1.10;0.63;;;;;;;;;;4981050;28;20042;-90
2021/11/29 00:34:52;;;;;;;1.25;1.15;;;;;;;;;;4984448;28;20050;-90
2021/11/29 00:37:18;;;;;;;0.90;0.77;;;;;;;;;;4955533;28;20424;-91
2021/11/29 00:39:44;;;;;;;0.70;0.70;;;;;;;;;;4956222;28;20023;-90
2021/11/29 00:42:11;;;;;;;0.77;0.60;;;;;;;;;;4956284;28;20031;-89
2021/11/29 00:44:37;;;;;;;0.98;0.90;;;;;;;;;;4975658;28;20196;-89
2021/11/29 00:47:03;;;;;;;1.25;1.13;;;;;;;;;;4971868;28;20138;-91
2021/11/29 00:49:30;;;;;;;3.47;1.05;;;;;;;;;;4994979;28;20056;-89
2021/11/29 00:51:56;;;;;;;1.77;1.67;;;;;;;;;;4996832;28;20126;-90
2021/11/29 00:54:22;;;;;;;2.25;1.42;;;;;;;;;;4991991;28;20096;-90
2021/11/29 00:56:48;;;;;;;1.55;1.35;;;;;;;;;;4992938;28;20054;-90
2021/11/29 00:59:14;;;;;;;0.75;0.70;;;;;;;;;;5001711;28;20038;-90
2021/11/29 01:01:40;;;;;;;0.98;0.93;;;;;;;;;;4978353;28;20078;-90
2021/11/29 01:04:06;;;;;;;1.77;1.50;;;;;;;;;;4982419;28;20031;-91
2021/11/29 01:06:32;;;;;;;2.45;1.30;;;;;;;;;;4977341;28;20038;-89
2021/11/29 01:08:58;;;;;;;0.60;0.60;;;;;;;;;;5009804;28;20030;-91
2021/11/29 01:11:24;;;;;;;3.67;1.10;;;;;;;;;;4992519;28;20571;-91
2021/11/29 01:13:50;;;;;;;1.35;0.82;;;;;;;;;;4984400;28;20029;-90
2021/11/29 01:16:16;;;;;;;0.73;0.73;;;;;;;;;;5011228;28;20018;-91
2021/11/29 01:18:42;;;;;;;2.47;1.38;;;;;;;;;;5010186;28;20058;-91
2021/11/29 01:21:08;;;;;;;0.88;0.88;;;;;;;;;;5011420;28;20057;-90
2021/11/29 01:23:34;;;;;;;0.93;0.73;;;;;;;;;;4996472;28;20053;-90
2021/11/29 01:26:00;;;;;;;2.72;1.08;;;;;;;;;;4996185;28;20053;-91
2021/11/29 01:28:26;;;;;;;1.10;1.00;;;;;;;;;;5011348;28;20045;-90
2021/11/29 01:30:52;;;;;;;0.98;0.93;;;;;;;;;;5011398;28;20030;-91
2021/11/29 01:33:18;;;;;;;1.13;0.73;;;;;;;;;;4995920;28;20492;-90
2021/11/29 01:35:45;;;;;;;1.67;1.10;;;;;;;;;;4994818;28;20069;-91
2021/11/29 01:38:11;;;;;;;0.63;0.63;;;;;;;;;;4995948;28;20532;-92
2021/11/29 01:40:37;;;;;;;1.15;0.80;;;;;;;;;;4996007;28;20034;-89
2021/11/29 01:43:11;;;;;;;3.33;1.48;;;;;;;;;;4994851;28;20023;-91
2021/11/29 01:45:42;;;;;;;1.20;1.10;;;4.70;80.40;;;;;;4976275;28;20554;-91
2021/11/29 01:48:09;;;;;;;0.68;0.68;;;;;;;;;;4979046;28;20046;-90
2021/11/29 01:50:35;;;;;;;2.42;2.03;;;;;;;;;;4989078;28;20057;-91
2021/11/29 01:53:02;;;;;;;0.73;0.73;;;4.70;80.90;;;;;;5011062;28;20407;-90
2021/11/29 01:55:28;;;;;;;3.28;0.73;;;;;;;;;;5010266;28;20053;-90
2021/11/29 01:57:54;;;;;;;0.68;0.68;;;;;;;;;;4975267;28;20030;-91
2021/11/29 02:00:24;;;;;;;7.22;0.88;;;4.60;80.90;;;;;;4995096;28;20034;-90
2021/11/29 02:02:52;;;;;;;1.67;1.23;;;;;;;;;;4995873;28;20049;-91
2021/11/29 02:05:19;;;;;;;0.60;0.60;;;4.70;79.70;;;;;;4995282;28;20030;-91
2021/11/29 02:07:45;;;;;;;1.33;0.98;;;;;;;;;;4994612;28;20197;-91
2021/11/29 02:10:11;;;;;;;1.10;1.00;;;;;;;;;;4994356;28;20121;-91
2021/11/29 02:12:37;;;;;;;2.17;1.35;;;;;;;;;;4995449;28;20030;-91
2021/11/29 02:15:04;;;;;;;0.70;0.70;;;4.60;79.80;;;;;;4994201;28;20403;-92
2021/11/29 02:17:30;;;;;;;1.55;1.20;;;;;;;;;;5009300;28;20509;-90
2021/11/29 02:19:57;;;;;;;0.85;0.85;;;;;;;;;;4994368;28;20034;-92
2021/11/29 02:22:23;;;;;;;1.33;1.10;;;;;;;;;;4994048;28;20042;-93
2021/11/29 02:24:49;;;;;;;1.08;0.98;;;;;;;;;;4993856;28;20610;-91
2021/11/29 02:27:15;;;;;;;0.93;0.85;;;;;;;;;;4992611;28;20065;-90
2021/11/29 02:29:41;;;;;;;2.85;1.25;;;;;;;;;;5008886;28;20711;-92
2021/11/29 02:32:07;;;;;;;1.00;0.70;;;;;;;;;;5013750;28;20117;-91
2021/11/29 02:34:33;;;;;;;0.63;0.63;;;;;;;;;;4999563;28;20045;-90
2021/11/29 02:37:05;;;;;;;1.50;1.17;;;4.80;79.00;;;;;;4997261;28;20488;-91
2021/11/29 02:39:31;;;;;;;2.30;0.98;;;;;;;;;;4993933;28;20054;-90
2021/11/29 02:41:58;;;;;;;1.85;1.33;;;;;;;;;;5009378;28;20542;-91
2021/11/29 02:44:24;;;;;;;;;;;4.80;79.50;;;;;;5010127;28;20022;-90
2021/11/29 02:46:50;;;;;;;1.35;1.08;;;;;;;;;;4994864;28;19918;-92
2021/11/29 02:49:16;;;;;;;4.25;1.08;;;;;;;;;;5009360;28;20030;-91
2021/11/29 02:51:51;;;;;;;1.00;0.98;;;4.50;80.00;;;;;;4994802;28;20030;-91
2021/11/29 02:54:19;;;;;;;1.60;1.27;;;;;;;;;;4993792;28;20088;-91
2021/11/29 02:56:45;;;;;;;;;;;;;;;;;;4994513;28;20500;-92
2021/11/29 02:59:15;;;;;;;0.95;0.93;;;;;;;;;;4993484;28;19916;-90
2021/11/29 03:01:42;;;;;;;0.98;0.93;;;;;;;;;;4994312;28;20109;-91
2021/11/29 03:04:08;;;;;;;0.90;0.90;;;;;;;;;;4993337;28;20027;-91
2021/11/29 03:06:34;;;;;;;0.63;0.63;;;;;;;;;;4994131;28;20543;-90
2021/11/29 03:09:01;;;;;;;1.05;0.70;;;;;;;;;;5009953;28;20518;-90
2021/11/29 03:11:28;;;;;;;2.28;1.05;;;4.80;78.30;;;;;;5011428;28;20026;-90
2021/11/29 03:13:54;;;;;;;0.95;0.80;;;;;;;;;;4992988;28;20026;-91
2021/11/29 03:16:21;;;;;;;0.70;0.70;;;;;;;;;;4993908;28;20058;-91
2021/11/29 03:18:47;;;;;;;0.73;0.70;;;;;;;;;;4994392;28;20077;-91
2021/11/29 03:21:15;;;;;;;2.28;1.50;;;;;;;;;;5010335;28;20027;-90
2021/11/29 03:23:42;;;;;;;2.05;1.08;;;4.70;77.70;;;;;;4993052;28;20058;-92
2021/11/29 03:26:09;;;;;;;1.95;1.20;;;;;;;;;;4993054;28;20027;-92
2021/11/29 03:28:39;;;;;;;1.70;0.95;;;;;;;;;;5010079;28;20270;-90
2021/11/29 03:31:06;;;;;;;1.17;0.82;;;;;;;;;;5009421;28;20547;-93
2021/11/29 03:33:33;;;;;;;0.63;0.63;;;;;;;;;;4994244;28;20081;-91
2021/11/29 03:35:59;;;;;;;0.70;0.70;;;;;;;;;;4993749;28;20096;-90
2021/11/29 03:38:25;;;;;;;0.55;0.55;;;;;;;;;;5001365;28;20065;-92
2021/11/29 03:40:51;;;;;;;0.73;0.73;;;;;;;;;;4991588;28;20015;-92
2021/11/29 03:43:17;;;;;;;0.68;0.68;;;;;;;;;;4992406;28;20022;-90
2021/11/29 03:45:43;;;;;;;2.38;1.15;;;;;;;;;;4993836;28;20073;-93
2021/11/29 03:48:09;;;;;;;0.73;0.73;;;;;;;;;;4991952;28;20096;-91
2021/11/29 03:50:35;;;;;;;2.03;1.30;;;;;;;;;;4993438;28;20045;-92
2021/11/29 03:53:01;;;;;;;0.70;0.70;;;;;;;;;;4992322;28;20387;-91
2021/11/29 03:55:27;;;;;;;0.65;0.65;;;;;;;;;;4992704;28;20018;-91
2021/11/29 03:57:53;;;;;;;2.17;1.20;;;;;;;;;;4992766;28;20030;-91
2021/11/29 04:00:20;;;;;;;0.55;0.55;;;;;;;;;;4992219;28;20030;-91
2021/11/29 04:02:46;;;;;;;0.60;0.60;;;;;;;;;;4993393;28;20117;-92
2021/11/29 04:05:12;;;;;;;3.17;0.95;;;;;;;;;;5003240;28;20872;-92
2021/11/29 04:07:38;;;;;;;0.70;0.70;;;;;;;;;;4978687;28;20121;-92
2021/11/29 04:10:05;;;;;;;0.70;0.50;;;4.50;78.00;;;;;;4993221;28;20117;-92
2021/11/29 04:12:31;;;;;;;0.65;0.60;;;;;;;;;;4986031;28;20061;-91
2021/11/29 04:14:57;;;;;;;0.80;0.80;;;;;;;;;;4993059;28;20423;-92
2021/11/29 04:17:22;;;;;;;0.77;0.77;;;;;;;;;;4988395;28;20120;-92
2021/11/29 04:19:49;;;;;;;1.77;0.95;;;;;;;;;;4995281;28;20081;-92
2021/11/29 04:22:15;;;;;;;1.30;1.00;;;;;;;;;;4996644;28;20034;-91
2021/11/29 04:24:42;;;;;;;1.23;0.75;;;;;;;;;;4998341;28;20026;-92
2021/11/29 04:27:08;;;;;;;9.20;0.88;;;;;;;;;;4997080;28;20038;-92
2021/11/29 04:29:39;;;;;;;1.02;0.93;;;;;;;;;;5013078;28;20782;-91
2021/11/29 04:32:05;;;;;;;1.08;0.77;;;;;;;;;;4995565;28;20029;-91
2021/11/29 04:34:31;;;;;;;0.82;0.60;;;;;;;;;;4997338;28;20022;-92
2021/11/29 04:36:57;;;;;;;7.38;1.73;;;;;;;;;;4996369;28;20510;-91
2021/11/29 04:39:23;;;;;;;1.48;1.02;;;;;;;;;;4997086;28;20033;-92
2021/11/29 04:41:50;;;;;;;0.40;0.40;;;;;;;;;;4997186;28;20030;-92
2021/11/29 04:44:16;;;;;;;1.03;0.83;;;;;;;;;;4996119;28;20026;-91
2021/11/29 04:46:43;;;;;;;0.50;0.50;;;;;;;;;;4996268;28;20052;-91
2021/11/29 04:49:09;;;;;;;0.75;0.73;;;;;;;;;;4996019;28;20040;-92
2021/11/29 04:51:35;;;;;;;0.55;0.50;;;;;;;;;;4996289;28;20026;-91
2021/11/29 04:54:02;;;;;;;0.65;0.60;;;;;;;;;;4997007;28;20031;-91
2021/11/29 04:56:28;;;;;;;1.25;1.08;;;;;;;;;;4997107;28;20065;-92
2021/11/29 04:58:54;;;;;;;0.80;0.80;;;;;;;;;;5012106;28;20644;-91
2021/11/29 05:01:20;;;;;;;0.50;0.50;;;;;;;;;;4997175;28;20085;-91
2021/11/29 05:03:46;;;;;;;2.45;0.90;;;;;;;;;;4995711;28;20026;-90
2021/11/29 05:06:12;;;;;;;0.82;0.80;;;;;;;;;;4992629;28;20506;-93
2021/11/29 05:08:38;;;;;;;0.77;0.77;;;;;;;;;;5009118;28;20033;-91
2021/11/29 05:11:05;;;;;;;0.50;0.50;;;;;;;;;;5011165;28;20022;-92
2021/11/29 05:13:31;;;;;;;0.88;0.88;;;;;;;;;;5012183;28;20100;-91
2021/11/29 05:15:57;;;;;;;0.80;0.70;;;;;;;;;;4996966;28;20026;-93
2021/11/29 05:18:23;;;;;;;0.50;0.50;;;;;;;;;;5011797;28;20030;-92
2021/11/29 05:20:49;;;;;;;1.25;1.05;;;;;;;;;;4997589;28;20026;-92
2021/11/29 05:23:16;;;;;;;0.60;0.60;;;;;;;;;;4988324;28;20058;-92
2021/11/29 05:25:43;;;;;;;0.93;0.93;;;;;;;;;;4982882;28;20495;-92
2021/11/29 05:28:09;;;;;;;3.55;2.58;;;;;;;;;;4996343;28;20034;-92
2021/11/29 05:30:35;;;;;;;0.63;0.57;;;;;;;;;;4996321;28;20084;-93
2021/11/29 05:33:01;;;;;;;0.50;0.50;;;;;;;;;;5008009;28;20033;-93
2021/11/29 05:35:27;;;;;;;1.00;0.70;;;;;;;;;;5007644;28;20022;-92
2021/11/29 05:37:53;;;;;;;1.17;0.80;;;;;;;;;;5006977;28;20022;-92
2021/11/29 05:40:19;;;;;;;2.05;1.02;;;;;;;;;;4999226;28;20096;-92
2021/11/29 05:42:46;;;;;;;1.35;1.02;;;;;;;;;;5014893;28;20095;-92
2021/11/29 05:45:13;;;;;;;1.63;0.73;;;;;;;;;;4998201;28;20038;-93
2021/11/29 05:47:39;;;;;;;0.47;0.47;;;;;;;;;;5005903;28;20054;-91
2021/11/29 05:50:07;;;;;;;0.88;0.88;;;4.50;75.50;;;;;;4981559;28;20034;-93
2021/11/29 05:52:34;;;;;;;0.65;0.60;;;;;;;;;;4994923;28;20022;-91
2021/11/29 05:55:00;;;;;;;0.77;0.77;;;;;;;;;;4996118;28;20026;-91
2021/11/29 05:57:26;;;;;;;0.70;0.70;;;;;;;;;;4985153;28;20039;-91
2021/11/29 05:59:52;;;;;;;0.55;0.55;;;;;;;;;;5011880;28;20073;-92
2021/11/29 06:02:18;;;;;;;1.30;1.05;;;;;;;;;;4994313;28;20034;-92
2021/11/29 06:04:44;;;;;;;1.10;0.75;;;;;;;;;;4994892;28;20117;-91
2021/11/29 06:07:10;;;;;;;0.90;0.75;;;;;;;;;;5009564;28;20120;-91
2021/11/29 06:09:36;;;;;;;0.98;0.75;;;;;;;;;;4986038;28;20019;-91
2021/11/29 06:12:02;;;;;;;0.88;0.85;;;;;;;;;;4990295;28;20037;-91
2021/11/29 06:14:28;;;;;;;0.68;0.60;;;;;;;;;;5012532;28;20031;-93
2021/11/29 06:16:55;;;;;;;1.42;0.95;;;;;;;;;;5008227;28;20452;-91
2021/11/29 06:19:21;;;;;;;0.80;0.77;;;;;;;;;;4992530;28;20718;-92
2021/11/29 06:21:47;;;;;;;0.60;0.60;;;;;;;;;;4994849;28;20142;-91
2021/11/29 06:24:13;;;;;;;1.10;1.00;;;;;;;;;;5008349;28;20025;-91
2021/11/29 06:26:39;;;;;;;1.45;1.30;;;;;;;;;;4986638;28;20563;-90
2021/11/29 06:29:05;;;;;;;1.17;1.08;;;;;;;;;;4987905;28;20695;-93
2021/11/29 06:31:32;;;;;;;0.88;0.63;;;;;;;;;;4993870;28;20031;-92
2021/11/29 06:33:58;;;;;;;3.00;1.83;;;;;;;;;;4991319;28;20022;-92
2021/11/29 06:36:28;;;;;;;0.93;0.93;;;;;;;;;;4992845;28;20125;-92
2021/11/29 06:38:56;;;;;;;1.98;1.08;;;4.50;76.70;;;;;;5001115;28;20074;-91
2021/11/29 06:41:23;;;;;;;0.82;0.82;;;4.60;76.80;;;;;;4983905;28;20133;-95
2021/11/29 06:43:50;;;;;;;1.55;1.13;;;;;;;;;;5138297;23;20061;-92
2021/11/29 06:46:16;;;;;;;1.65;1.27;;;;;;;;;;4989671;28;20039;-91
2021/11/29 06:48:42;;;;;;;1.02;1.02;;;;;;;;;;4973568;28;20047;-91
2021/11/29 06:51:08;;;;;;;0.93;0.70;;;;;;;;;;4971895;28;20553;-91
2021/11/29 06:53:34;;;;;;;1.35;1.05;;;;;;;;;;4973137;28;20042;-95
2021/11/29 06:56:01;;;;;;;1.73;1.15;;;;;;;;;;4973311;28;20081;-90
2021/11/29 06:58:27;;;;;;;1.05;1.00;;;;;;;;;;4976079;28;20488;-91
2021/11/29 07:00:54;;;;;;;1.30;0.88;;;;;;;;;;4974374;28;20031;-91
2021/11/29 07:03:20;;;;;;;2.67;1.40;;;;;;;;;;4973921;28;20047;-91
2021/11/29 07:05:47;;;;;;;1.15;1.05;;;;;;;;;;4973617;28;20086;-91
2021/11/29 07:08:13;;;;;;;5.65;0.95;;;;;;;;;;4974061;28;20039;-92
2021/11/29 07:10:42;;;;;;;1.73;1.00;;;;;;;;;;4974377;28;20039;-91
2021/11/29 07:13:09;;;;;;;0.63;0.63;;;;;;;;;;4974591;28;20059;-91
2021/11/29 07:15:36;;;;;;;4.55;1.45;;;;;;;;;;4974233;28;20093;-91
2021/11/29 07:18:02;;;;;;;1.08;0.73;;;;;;;;;;4956677;28;20035;-91
2021/11/29 07:20:28;;;;;;;1.95;1.20;;;;;;;;;;4977961;28;20126;-91
2021/11/29 07:22:54;;;;;;;0.80;0.73;;;;;;;;;;4989014;28;20122;-91
2021/11/29 07:25:20;;;;;;;1.05;1.05;;;;;;;;;;4973853;28;20122;-93
2021/11/29 07:27:46;;;;;;;1.77;1.05;;;;;;;;;;4992233;28;20681;-92
2021/11/29 07:30:14;;;;;;;;;;;4.50;77.50;;;;;;4972844;28;20046;-92
2021/11/29 07:32:40;;;;;;;1.17;0.85;;;;;;;;;;4989305;28;19916;-93
2021/11/29 07:35:07;;;;;;;0.80;0.77;;;;;;;;;;4973557;28;20081;-94
2021/11/29 07:37:33;;;;;;;1.65;1.08;;;;;;;;;;4986667;28;20033;-92
2021/11/29 07:40:02;;;;;;;1.67;1.13;;;;;;;;;;4965039;28;20046;-93
2021/11/29 07:42:28;;;;;;;1.13;0.85;;;;;;;;;;4970384;28;20027;-92
2021/11/29 07:44:55;;;;;;;0.95;0.90;;;;;;;;;;4954138;28;20078;-91
2021/11/29 07:47:22;;;;;;;2.67;1.80;;;;;;;;;;4951136;28;20039;-89
2021/11/29 07:49:48;;;;;;;2.72;1.58;;;;;;;;;;4950674;29;20027;-90
2021/11/29 07:52:14;;;;;;;2.08;1.60;;;;;;;;;;4948405;28;20066;-88
2021/11/29 07:54:43;;;;;;;1.20;1.10;;;;;;;;;;4931531;29;20032;-90
2021/11/29 07:57:12;;;;;;;1.10;0.75;;;4.50;78.60;;;;;;4935818;29;20086;-91
2021/11/29 07:59:38;;;;;;;1.45;1.30;;;;;;;;;;4950418;29;20023;-89
2021/11/29 08:02:04;;;;;;;1.33;1.23;;;;;;;;;;4931582;29;20879;-89
2021/11/29 08:04:30;;;;;;;2.60;1.48;;;;;;;;;;4948684;29;20042;-86
2021/11/29 08:06:56;;;;;;;1.88;1.58;;;;;;;;;;4936731;29;20416;-89
2021/11/29 08:09:22;;;;;;;1.77;1.45;;;;;;;;;;4934157;29;20065;-86
2021/11/29 08:11:48;;;;;;;13.60;3.50;;;;;;;;;;4948172;28;20034;-88
2021/11/29 08:14:14;;;;;;;9.82;2.95;;;;;;;;;;4927059;29;20027;-85
2021/11/29 08:16:40;;;;;;;3.22;1.80;;;;;;;;;;4947341;28;20493;-85
2021/11/29 08:19:06;;;;;;;12.63;5.70;;;;;;;;;;4947327;29;20139;-86
2021/11/29 08:21:32;;;;;;;21.25;6.72;;;;;;;;;;4940766;28;20551;-87
2021/11/29 08:23:58;;;;;;;8.10;4.10;;;;;;;;;;4941708;28;20070;-90
2021/11/29 08:26:28;;;;;;;4.38;2.45;;;;;;;;;;4945542;28;20090;-90
2021/11/29 08:28:54;;;;;;;6.15;3.00;;;;;;;;;;4953271;28;20105;-89
2021/11/29 08:31:20;;;;;;;12.82;2.78;;;;;;;;;;4949338;28;20118;-90
2021/11/29 08:33:46;;;;;;;4.80;3.55;;;;;;;;;;4944793;28;20027;-90
2021/11/29 08:36:12;;;;;;;4.88;2.33;;;;;;;;;;4948061;28;20138;-88
2021/11/29 08:38:38;;;;;;;2.45;1.90;;;;;;;;;;4935572;29;20496;-89
2021/11/29 08:41:04;;;;;;;4.50;1.88;;;;;;;;;;4929808;29;20039;-88
2021/11/29 08:43:31;;;;;;;1.60;0.90;;;;;;;;;;4947230;28;20054;-88
2021/11/29 08:45:57;;;;;;;1.85;1.33;;;;;;;;;;4964425;28;20035;-88
2021/11/29 08:48:24;;;;;;;3.00;2.08;;;5.00;75.70;;;;;;4952260;28;20066;-89
2021/11/29 08:50:54;;;;;;;2.30;1.52;;;;;;;;;;4952740;28;20022;-86
2021/11/29 08:53:21;;;;;;;3.60;1.98;;;;;;;;;;4949558;28;20125;-88
2021/11/29 08:55:48;;;;;;;2.25;1.25;;;;;;;;;;4967128;28;20026;-89
2021/11/29 08:58:14;;;;;;;2.00;1.42;;;;;;;;;;4968125;28;20050;-89
2021/11/29 09:00:41;;;;;;;2.53;1.67;;;;;;;;;;4972983;28;20073;-88
2021/11/29 09:03:07;;;;;;;7.75;2.35;;;;;;;;;;4957828;28;20039;-88
2021/11/29 09:05:35;;;;;;;5.47;2.00;;;;;;;;;;4969769;28;20027;-88
2021/11/29 09:08:01;;;;;;;2.17;1.25;;;;;;;;;;4955076;28;20043;-89
2021/11/29 09:10:27;;;;;;;4.45;1.65;;;;;;;;;;4968229;28;20019;-89
2021/11/29 09:12:53;;;;;;;2.55;2.15;;;;;;;;;;4968109;28;20690;-89
2021/11/29 09:15:19;;;;;;;1.50;1.35;;;;;;;;;;4957750;28;20038;-88
2021/11/29 09:17:46;;;;;;;1.90;1.23;;;;;;;;;;4968832;28;20034;-87
2021/11/29 09:20:14;;;;;;;2.28;1.83;;;;;;;;;;4970399;28;20035;-90
2021/11/29 09:22:41;;;;;;;1.20;1.00;;;;;;;;;;4966673;28;20560;-89
2021/11/29 09:25:08;;;;;;;1.90;1.60;;;;;;;;;;4959553;28;20084;-88
2021/11/29 09:27:34;;;;;;;1.98;1.75;;;;;;;;;;4973399;28;20121;-88
2021/11/29 09:30:00;;;;;;;6.03;2.13;;;;;;;;;;4969958;28;20030;-90
2021/11/29 09:32:26;;;;;;;4.32;1.85;;;;;;;;;;4970294;28;20035;-88
2021/11/29 09:34:52;;;;;;;1.52;1.23;;;;;;;;;;4949776;28;20027;-89
2021/11/29 09:37:19;;;;;;;2.35;1.55;;;;;;;;;;4975270;28;20607;-88
2021/11/29 09:39:46;;;;;;;2.95;2.38;;;;;;;;;;4971284;28;20023;-89
2021/11/29 09:42:12;;;;;;;8.48;2.47;;;;;;;;;;4956722;28;20042;-88
2021/11/29 09:44:38;;;;;;;3.00;2.38;;;;;;;;;;4961535;28;20504;-88
2021/11/29 09:47:04;;;;;;;5.97;3.08;;;;;;;;;;4937361;28;20552;-87
2021/11/29 09:49:31;;;;;;;1.83;1.73;;;;;;;;;;4957474;28;20102;-86
2021/11/29 09:51:58;;;;;;;2.13;1.67;;;5.30;74.40;;;;;;4955175;28;20313;-87
2021/11/29 09:54:24;;;;;;;1.77;1.67;;;;;;;;;;4953100;28;20027;-86
2021/11/29 09:56:53;;;;;;;2.38;1.90;;;;;;;;;;4934200;28;20039;-87
2021/11/29 09:59:23;;;;;;;10.25;4.93;;;;;;;;;;4949778;28;20497;-87
2021/11/29 10:01:51;;;;;;;5.70;2.08;;;5.40;74.30;;;;;;4959393;28;20105;-87
2021/11/29 10:04:17;;;;;;;11.15;4.00;;;;;;;;;;4946207;28;20027;-86
2021/11/29 10:06:45;;;;;;;23.90;11.02;;;;;;;;;;4941827;28;20047;-89
2021/11/29 10:09:34;;;;;;;12.63;5.05;;;;;;;;;;4948949;28;20104;-87
2021/11/29 10:12:19;;;;;;;5.50;2.78;;;5.50;73.30;;;;;;4950379;28;20034;-88
2021/11/29 10:15:34;;;;;;;9.65;3.78;;;5.60;73.70;;;;;;4945084;28;20082;-87
2021/11/29 10:18:00;;;;;;;10.88;3.75;;;;;;;;;;4946767;28;20102;-87
2021/11/29 10:20:31;;;;;;;6.57;1.92;;;5.50;72.60;;;;;;4953377;28;20023;-86
2021/11/29 10:23:07;;;;;;;11.05;3.97;;;;;;;;;;4947385;28;20042;-88
2021/11/29 10:25:41;;;;;;;8.23;4.68;;;5.60;72.70;;;;;;4950789;28;20028;-91
2021/11/29 10:28:21;;;;;;;5.35;2.92;;;;;;;;;;4955413;28;20083;-90
2021/11/29 10:30:47;;;;;;;3.03;2.17;;;;;;;;;;4956752;28;20122;-90
2021/11/29 10:33:15;;;;;;;1.83;1.55;;;;;;;;;;4937626;28;20098;-87
2021/11/29 10:35:42;;;;;;;2.15;1.75;;;;;;;;;;4951596;28;20400;-88
2021/11/29 10:38:10;;;;;;;1.48;1.33;;;;;;;;;;4947299;28;20035;-87
2021/11/29 10:40:36;;;;;;;;;;;;;;;;;;4951486;28;20094;-87
2021/11/29 10:43:06;;;;;;;1.58;1.42;;;;;;;;;;4952347;28;19914;-89
2021/11/29 10:45:36;;;;;;;1.35;1.25;;;;;;;;;;4961382;28;20093;-89
2021/11/29 10:48:02;;;;;;;1.98;1.00;;;;;;;;;;4968027;28;20050;-88
2021/11/29 10:50:29;;;;;;;1.55;1.42;;;5.50;72.20;;;;;;4972358;28;20023;-89
2021/11/29 10:53:10;;;;;;;7.40;1.42;;;5.60;70.70;;;;;;4962732;28;20333;-90
2021/11/29 10:55:55;;;;;;;3.25;1.83;;;;;;;;;;4964956;28;20046;-88
2021/11/29 10:58:22;;;;;;;5.38;2.05;;;;;;;;;;4957817;28;20042;-87
2021/11/29 11:00:48;;;;;;;2.33;1.60;;;;;;;;;;4970825;28;20033;-87
2021/11/29 11:03:14;;;;;;;2.58;1.63;;;;;;;;;;4949474;28;20051;-87
2021/11/29 11:06:00;;;;;;;3.30;2.33;;;;;;;;;;4973786;28;20033;-88
2021/11/29 11:08:35;;;;;;;9.13;3.65;;;;;;;;;;4966831;28;20046;-87
2021/11/29 11:11:02;;;;;;;3.00;2.50;;;;;;;;;;4961861;28;20030;-89
2021/11/29 11:13:28;;;;;;;1.38;1.23;;;5.40;72.10;;;;;;4962373;28;20463;-87
2021/11/29 11:15:54;;;;;;;1.55;1.45;;;;;;;;;;4966647;28;20034;-88
2021/11/29 11:18:20;;;;;;;7.93;2.47;;;;;;;;;;4968037;28;20037;-88
2021/11/29 11:20:49;;;;;;;4.90;3.20;;;5.30;72.70;;;;;;4950456;28;20400;-88
2021/11/29 11:23:25;;;;;;;2.45;2.05;;;;;;;;;;4965002;28;20042;-88
2021/11/29 11:25:51;;;;;;;10.20;4.97;;;;;;;;;;4969332;28;20031;-87
2021/11/29 11:28:17;;;;;;;15.32;5.82;;;;;;;;;;4966132;28;20038;-87
2021/11/29 11:30:43;;;;;;;46.17;12.43;;;;;;;;;;4969236;28;20042;-87
2021/11/29 11:33:20;;;;;;;3.85;2.55;;;;;;;;;;4949854;28;20035;-87
2021/11/29 11:35:48;;;;;;;5.40;1.67;;;;;;;;;;4949200;28;20065;-88
2021/11/29 11:38:16;;;;;;;2.47;1.95;;;;;;;;;;4965313;28;20031;-86
2021/11/29 11:40:43;;;;;;;6.03;2.00;;;;;;;;;;4966614;28;20031;-87
2021/11/29 11:43:11;;;;;;;2.42;1.50;;;5.30;71.50;;;;;;4962649;28;20038;-87
2021/11/29 11:45:39;;;;;;;14.30;5.50;;;;;;;;;;4967882;28;20039;-87
2021/11/29 11:48:05;;;;;;;3.70;2.65;;;;;;;;;;4962241;28;20047;-87
2021/11/29 11:50:34;;;;;;;3.03;2.30;;;;;;;;;;4967826;28;20407;-87
2021/11/29 11:53:01;;;;;;;21.88;4.57;;;;;;;;;;4963476;28;20813;-88
2021/11/29 11:55:32;;;;;;;8.93;3.80;;;;;;;;;;4969291;28;20034;-86
2021/11/29 11:57:59;;;;;;;4.05;2.67;;;;;;;;;;4968508;28;20078;-85
2021/11/29 12:00:36;;;;;;;28.58;10.32;;;;;;;;;;4965210;28;20086;-86
2021/11/29 12:03:07;;;;;;;8.73;5.05;;;;;;;;;;4964344;28;20141;-86
2021/11/29 12:05:36;;;;;;;10.82;4.88;;;;;;;;;;4965398;28;20046;-88
2021/11/29 12:08:03;;;;;;;9.35;6.60;;;;;;;;;;4971037;28;20047;-88
2021/11/29 12:10:35;;;;;;;5.13;3.58;;;;;;;;;;4966194;28;20027;-86
2021/11/29 12:13:04;;;;;;;2.58;2.00;;;;;;;;;;4964786;28;20126;-90
2021/11/29 12:15:40;;;;;;;7.30;3.08;;;;;;;;;;4970045;28;20015;-90
2021/11/29 12:18:06;;;;;;;7.70;3.03;;;;;;;;;;4967007;28;20042;-90
2021/11/29 12:20:32;;;;;;;2.75;1.75;;;;;;;;;;4952468;28;20652;-88
2021/11/29 12:22:58;;;;;;;2.75;2.45;;;;;;;;;;4965212;28;20038;-88
2021/11/29 12:25:25;;;;;;;4.75;1.98;;;;;;;;;;4970083;28;20018;-89
2021/11/29 12:27:59;;;;;;;4.43;3.05;;;;;;;;;;4969970;28;20130;-90
2021/11/29 12:30:40;;;;;;;4.22;1.63;;;;;;;;;;4963217;28;20042;-89
2021/11/29 12:33:07;;;;;;;2.25;2.05;;;;;;;;;;4965253;28;20069;-89
2021/11/29 12:35:38;;;;;;;2.65;1.73;;;;;;;;;;4966309;28;20672;-89
2021/11/29 12:38:06;;;;;;;12.23;3.95;;;;;;;;;;4973433;28;20027;-89
2021/11/29 12:40:43;;;;;;;6.95;2.90;;;;;;;;;;4971369;28;20035;-90
2021/11/29 12:43:09;;;;;;;6.10;2.55;;;;;;;;;;4966882;28;20034;-91
2021/11/29 12:45:35;;;;;;;29.02;9.57;;;;;;;;;;4971078;28;20090;-89
2021/11/29 12:48:10;;;;;;;28.42;6.97;;;;;;;;;;4973638;28;20031;-89
2021/11/29 12:50:43;;;;;;;8.60;4.32;;;;;;;;;;4973769;28;20049;-89
2021/11/29 12:53:12;;;;;;;46.35;13.88;;;;;;;;;;4969582;28;20033;-89
2021/11/29 12:55:39;;;;;;;12.07;6.07;;;;;;;;;;4972082;28;20035;-90
2021/11/29 12:58:27;;;;;;;4.57;3.15;;;5.30;71.10;;;;;;4960574;28;20085;-90
2021/11/29 13:01:15;;;;;;;5.95;2.45;;;5.30;71.50;;;;;;4972373;28;20035;-90
2021/11/29 13:03:51;;;;;;;9.32;3.95;;;;;;;;;;4967278;28;20031;-90
2021/11/29 13:06:17;;;;;;;14.50;5.68;;;;;;;;;;4954194;28;20082;-90
2021/11/29 13:08:45;;;;;;;15.52;6.60;;;;;;;;;;4972824;28;20516;-90
2021/11/29 13:11:24;;;;;;;10.77;6.40;;;;;;;;;;4956257;28;20053;-89
2021/11/29 13:13:50;;;;;;;5.75;3.50;;;;;;;;;;4962764;28;20488;-88
2021/11/29 13:16:23;;;;;;;4.07;2.97;;;;;;;;;;4971920;28;20264;-87
2021/11/29 13:18:50;;;;;;;31.52;11.07;;;;;;;;;;4973161;28;20034;-91
2021/11/29 13:21:33;;;;;;;22.15;9.50;;;;;;;;;;4965880;28;20058;-89
2021/11/29 13:23:59;;;;;;;11.85;3.03;;;;;;;;;;4970532;28;20039;-89
2021/11/29 13:26:26;;;;;;;9.00;4.40;;;;;;;;;;4953183;28;20846;-89
2021/11/29 13:28:54;;;;;;;23.95;10.18;;;;;;;;;;4962425;28;20042;-89
2021/11/29 13:31:28;;;;;;;;;;;5.20;73.30;;;;;;4972166;28;20038;-89
2021/11/29 13:33:54;;;;;;;9.63;5.05;;;;;;;;;;4972710;28;19906;-90
2021/11/29 13:36:20;;;;;;;11.68;4.57;;;;;;;;;;4972376;28;20038;-88
2021/11/29 13:38:46;;;;;;;4.38;1.75;;;;;;;;;;4973420;28;20023;-88
2021/11/29 13:41:19;;;;;;;11.60;4.53;;;;;;;;;;4955707;28;20035;-88
2021/11/29 13:43:45;;;;;;;19.17;7.90;;;;;;;;;;4972285;28;20038;-90
2021/11/29 13:46:12;;;;;;;19.27;9.77;;;;;;;;;;4952854;28;20035;-89
2021/11/29 13:48:39;;;;;;;11.43;4.68;;;;;;;;;;4970643;28;20467;-89
2021/11/29 13:51:05;;;;;;;10.80;6.20;;;;;;;;;;4969301;28;20480;-87
2021/11/29 13:53:32;;;;;;;18.75;5.80;;;;;;;;;;4965710;28;20053;-89
2021/11/29 13:55:59;;;;;;;13.25;5.80;;;;;;;;;;4952032;28;20546;-88
2021/11/29 13:58:29;;;;;;;10.70;5.03;;;;;;;;;;4970965;28;20035;-88
2021/11/29 14:01:00;;;;;;;23.42;9.38;;;;;;;;;;4970637;28;20270;-89
2021/11/29 14:03:34;;;;;;;17.05;7.00;;;5.40;73.70;;;;;;4970613;28;20372;-89
2021/11/29 14:06:07;;;;;;;19.45;6.55;;;;;;;;;;4976497;28;20106;-89
2021/11/29 14:08:35;;;;;;;11.70;4.47;;;;;;;;;;4969444;28;20074;-89
2021/11/29 14:11:02;;;;;;;6.53;3.00;;;;;;;;;;4970590;28;20037;-88
2021/11/29 14:13:28;;;;;;;29.00;11.88;;;;;;;;;;4968858;28;20493;-90
2021/11/29 14:16:21;;;;;;;10.93;4.10;;;5.30;74.20;;;;;;4961747;28;20113;-89
2021/11/29 14:18:49;;;;;;;17.58;8.48;;;;;;;;;;4969149;28;20089;-88
2021/11/29 14:21:26;;;;;;;11.93;4.97;;;;;;;;;;4966859;28;20122;-89
2021/11/29 14:23:58;;;;;;;6.05;3.45;;;;;;;;;;4963983;28;20115;-88
2021/11/29 14:26:32;;;;;;;11.43;4.90;;;;;;;;;;4969528;28;20030;-88
2021/11/29 14:28:59;;;;;;;6.85;3.28;;;;;;;;;;4961435;28;20125;-90
2021/11/29 14:31:26;;;;;;;9.70;5.00;;;;;;;;;;4961412;28;20027;-88
2021/11/29 14:33:55;;;;;;;6.40;4.78;;;;;;;;;;4952152;28;20082;-89